Time;durP1;ratioP1;P1;durP2;ratioP2;P2;SDS_P1;SDS_P2;PMS_P1;PMS_P2;Temp;Humidity;BMP_temperature;BMP_pressure;BME280_temperature;BME280_humidity;BME280_pressure;Samples;Min_cycle;Max_cycle;Signal;HPM_P1;HPM_P2
2023/01/07 00:01:27;;;;;;;3.05;2.30;;;;;;;;;;4968642;28;20097;-75
2023/01/07 00:03:57;;;;;;;4.82;3.03;;;;;;;;;;4972240;28;20030;-77
2023/01/07 00:06:25;;;;;;;6.35;2.67;;;;;;;;;;4972805;28;20109;-75
2023/01/07 00:08:52;;;;;;;2.83;2.00;;;;;;;;;;4973920;28;20371;-76
2023/01/07 00:11:23;;;;;;;3.50;1.98;;;;;;;;;;4977880;28;20034;-75
2023/01/07 00:13:50;;;;;;;3.78;2.30;;;;;;;;;;4970346;28;20027;-76
2023/01/07 00:16:18;;;;;;;4.60;2.75;;;;;;;;;;4969318;28;20042;-76
2023/01/07 00:18:44;;;;;;;3.17;2.45;;;;;;;;;;4965350;28;20124;-77
2023/01/07 00:21:13;;;;;;;2.60;2.33;;;;;;;;;;4969021;28;20482;-76
2023/01/07 00:23:41;;;;;;;4.50;2.67;;;;;;;;;;4969182;28;20048;-75
2023/01/07 00:26:11;;;;;;;3.65;2.80;;;;;;;;;;4971438;28;20394;-76
2023/01/07 00:28:42;;;;;;;3.88;2.75;;;;;;;;;;4972001;28;20482;-75
2023/01/07 00:31:10;;;;;;;4.40;2.35;;;;;;;;;;4969963;28;20094;-76
2023/01/07 00:33:44;;;;;;;2.88;2.58;;;;;;;;;;4985429;28;20037;-75
2023/01/07 00:36:10;;;;;;;3.30;2.50;;;;;;;;;;4983970;28;20478;-76
2023/01/07 00:38:38;;;;;;;3.90;2.50;;;;;;;;;;4970093;28;20081;-75
2023/01/07 00:41:04;;;;;;;4.57;2.75;;;;;;;;;;4971410;28;20037;-75
2023/01/07 00:43:32;;;;;;;3.13;2.50;;;;;;;;;;4969645;28;20109;-76
2023/01/07 00:45:58;;;;;;;3.45;2.53;;;;;;;;;;4969584;28;20030;-76
2023/01/07 00:48:25;;;;;;;3.33;2.30;;;;;;;;;;4961735;28;20451;-76
2023/01/07 00:50:54;;;;;;;2.33;2.13;;;;;;;;;;4965060;28;20077;-77
2023/01/07 00:53:20;;;;;;;2.60;2.13;;;;;;;;;;4969697;28;20023;-77
2023/01/07 00:55:50;;;;;;;3.65;2.10;;;;;;;;;;4961462;28;20031;-77
2023/01/07 00:58:20;;;;;;;2.53;1.95;;;;;;;;;;4969891;28;20169;-77
2023/01/07 01:00:49;;;;;;;3.72;2.03;;;;;;;;;;4962523;28;20038;-77
2023/01/07 01:03:14;;;;;;;2.47;1.67;;;;;;;;;;4969790;28;20026;-76
2023/01/07 01:05:40;;;;;;;3.03;2.55;;;;;;;;;;4966029;28;20046;-76
2023/01/07 01:08:08;;;;;;;3.83;1.73;;;;;;;;;;4970652;28;20035;-76
2023/01/07 01:10:36;;;;;;;3.03;2.20;;;;;;;;;;4970283;28;20023;-75
2023/01/07 01:13:04;;;;;;;2.40;2.20;;;;;;;;;;4971118;28;20027;-76
2023/01/07 01:15:29;;;;;;;2.88;2.33;;;;;;;;;;4969709;28;20037;-75
2023/01/07 01:17:55;;;;;;;2.60;1.95;;;;;;;;;;4982029;28;20019;-76
2023/01/07 01:20:20;;;;;;;2.17;1.85;;;;;;;;;;4970717;28;20015;-74
2023/01/07 01:22:48;;;;;;;3.40;1.80;;;;;;;;;;4971940;28;20110;-76
2023/01/07 01:25:13;;;;;;;3.67;1.88;;;;;;;;;;4970428;28;20047;-77
2023/01/07 01:27:39;;;;;;;2.55;1.77;;;;;;;;;;4968991;28;20065;-76
2023/01/07 01:30:06;;;;;;;3.22;2.15;;;;;;;;;;4970653;28;20370;-75
2023/01/07 01:32:31;;;;;;;3.58;1.88;;;;;;;;;;4970716;28;20023;-77
2023/01/07 01:34:57;;;;;;;2.53;2.00;;;;;;;;;;4971167;28;20085;-75
2023/01/07 01:37:22;;;;;;;2.17;1.98;;;;;;;;;;4970730;28;20035;-77
2023/01/07 01:39:50;;;;;;;3.47;1.70;;;;;;;;;;4970235;28;20035;-76
2023/01/07 01:42:20;;;;;;;1.63;1.50;;;;;;;;;;4971529;28;20562;-76
2023/01/07 01:44:55;;;;;;;2.70;2.20;;;;;;;;;;4969310;28;20038;-77
2023/01/07 01:47:31;;;;;;;3.47;2.15;;;;;;;;;;4964935;28;20179;-76
2023/01/07 01:50:08;;;;;;;2.22;1.90;;;;;;;;;;4960657;28;20035;-75
2023/01/07 01:52:43;;;;;;;2.60;2.13;;;;;;;;;;4966967;28;20429;-76
2023/01/07 01:55:12;;;;;;;2.90;2.28;;;;;;;;;;4982308;28;20031;-75
2023/01/07 01:57:38;;;;;;;2.53;2.20;;;;;;;;;;4968699;28;20043;-76
2023/01/07 02:00:06;;;;;;;2.47;1.90;;;;;;;;;;4975963;28;20027;-75
2023/01/07 02:02:50;;;;;;;2.35;1.80;;;;;;;;;;4965093;28;20027;-75
2023/01/07 02:05:15;;;;;;;2.45;1.92;;;;;;;;;;4966463;28;20058;-76
2023/01/07 02:07:41;;;;;;;3.55;1.80;;;;;;;;;;4969587;28;20110;-75
2023/01/07 02:10:12;;;;;;;2.40;2.20;;;;;;;;;;4970882;28;20027;-76
2023/01/07 02:12:55;;;;;;;2.42;2.10;;;;;;;;;;4963500;28;20085;-77
2023/01/07 02:15:27;;;;;;;2.83;2.20;;;;;;;;;;4968949;28;20094;-76
2023/01/07 02:18:18;;;;;;;2.97;2.42;;;;;;;;;;4969676;28;20115;-76
2023/01/07 02:20:53;;;;;;;3.58;2.30;;;;;;;;;;4969536;28;20386;-76
2023/01/07 02:23:46;;;;;;;2.85;2.30;;;;;;;;;;4971757;28;20033;-76
2023/01/07 02:26:30;;;;;;;2.22;2.00;;;;;;;;;;4968726;28;20433;-76
2023/01/07 02:29:15;;;;;;;2.90;2.15;;;;;;;;;;4969619;28;20019;-76
2023/01/07 02:31:55;;;;;;;2.90;2.10;;;;;;;;;;4972457;28;20026;-76
2023/01/07 02:34:21;;;;;;;2.53;1.90;;;;;;;;;;4967933;28;20031;-75
2023/01/07 02:37:12;;;;;;;3.13;2.53;;;;;;;;;;4965797;28;20023;-76
2023/01/07 02:40:08;;;;;;;2.70;2.20;;;;;;;;;;4962985;28;20031;-76
2023/01/07 02:42:50;;;;;;;3.45;2.40;;;;;;;;;;4970817;28;20087;-74
2023/01/07 02:45:22;;;;;;;2.78;2.40;;;;;;;;;;4966622;28;20392;-76
2023/01/07 02:48:01;;;;;;;2.72;2.50;;;;;;;;;;4956690;28;20034;-76
2023/01/07 02:50:26;;;;;;;2.38;2.13;;;;;;;;;;4955618;28;20023;-74
2023/01/07 02:52:52;;;;;;;3.17;2.20;;;;;;;;;;4962721;28;20078;-77
2023/01/07 02:55:44;;;;;;;2.30;2.10;;;;;;;;;;4971517;28;20027;-76
2023/01/07 02:58:37;;;;;;;2.83;1.85;;;;;;;;;;4939158;28;20058;-76
2023/01/07 03:01:20;;;;;;;2.83;2.50;;;;;;;;;;4984372;28;20019;-77
2023/01/07 03:03:51;;;;;;;2.60;2.00;;;;;;;;;;4960104;28;20086;-76
2023/01/07 03:06:35;;;;;;;2.95;2.00;;;;;;;;;;4973264;28;20026;-76
2023/01/07 03:09:52;;;;;;;4.07;2.05;;;;;;;;;;4987676;28;20445;-76
2023/01/07 03:12:35;;;;;;;2.50;2.15;;;;;;;;;;4971022;28;20129;-77
2023/01/07 03:15:13;;;;;;;2.05;1.85;;;;;;;;;;4971999;28;20030;-76
2023/01/07 03:17:47;;;;;;;2.17;1.98;;;;;;;;;;4972618;28;20034;-76
2023/01/07 03:20:17;;;;;;;2.33;1.65;;;;;;;;;;4972292;28;20466;-75
2023/01/07 03:22:44;;;;;;;1.92;1.58;;;;;;;;;;4972242;28;20046;-76
2023/01/07 03:25:15;;;;;;;2.13;1.80;;;;;;;;;;4972767;28;20076;-76
2023/01/07 03:27:44;;;;;;;1.83;1.73;;;;;;;;;;4970725;28;20027;-76
2023/01/07 03:30:12;;;;;;;2.17;1.98;;;;;;;;;;4972499;28;20066;-75
2023/01/07 03:33:05;;;;;;;2.25;1.90;;;;;;;;;;4972003;28;20085;-75
2023/01/07 03:35:33;;;;;;;1.70;1.60;;;;;;;;;;4954881;28;20042;-75
2023/01/07 03:38:01;;;;;;;2.00;1.80;;;;;;;;;;4984210;28;20039;-77
2023/01/07 03:40:27;;;;;;;2.47;1.80;;;;;;;;;;4969634;28;20037;-75
2023/01/07 03:42:53;;;;;;;1.92;1.75;;;;;;;;;;4973228;28;20349;-76
2023/01/07 03:45:23;;;;;;;2.60;1.92;;;;;;;;;;4972852;28;20123;-75
2023/01/07 03:47:51;;;;;;;2.40;1.98;;;;;;;;;;4967533;28;20400;-76
2023/01/07 03:50:17;;;;;;;3.30;1.98;;;;;;;;;;4972736;28;20077;-76
2023/01/07 03:52:43;;;;;;;2.45;2.15;;;;;;;;;;4987136;28;20027;-76
2023/01/07 03:55:10;;;;;;;2.47;2.28;;;;;;;;;;4972414;28;20065;-75
2023/01/07 03:57:35;;;;;;;2.13;1.92;;;;;;;;;;4973893;28;20023;-75
2023/01/07 04:00:05;;;;;;;2.00;1.80;;;;;;;;;;4972529;28;20126;-75
2023/01/07 04:02:30;;;;;;;3.08;2.08;;;;;;;;;;4970862;28;20030;-74
2023/01/07 04:04:56;;;;;;;2.25;1.98;;;;;;;;;;4970176;28;20097;-75
2023/01/07 04:07:23;;;;;;;2.60;2.10;;;;;;;;;;4970072;28;20066;-75
2023/01/07 04:09:49;;;;;;;3.35;2.28;;;;;;;;;;4971736;28;20031;-76
2023/01/07 04:12:16;;;;;;;2.55;2.05;;;;;;;;;;4972675;28;20030;-77
2023/01/07 04:14:41;;;;;;;2.35;1.90;;;;;;;;;;4972290;28;20026;-77
2023/01/07 04:17:06;;;;;;;2.28;1.83;;;;;;;;;;4972522;28;20091;-77
2023/01/07 04:19:32;;;;;;;2.83;2.33;;;;;;;;;;4986573;28;20029;-76
2023/01/07 04:22:00;;;;;;;2.22;1.90;;;;;;;;;;4971859;28;20018;-76
2023/01/07 04:24:25;;;;;;;3.28;2.00;;;;;;;;;;4968130;28;20026;-74
2023/01/07 04:26:51;;;;;;;3.20;2.08;;;;;;;;;;4971230;28;20168;-77
2023/01/07 04:29:16;;;;;;;3.28;2.40;;;;;;;;;;4972040;28;20038;-77
2023/01/07 04:31:44;;;;;;;2.80;2.30;;;;;;;;;;4971160;28;20019;-75
2023/01/07 04:34:09;;;;;;;3.83;2.50;;;;;;;;;;4966583;28;20478;-75
2023/01/07 04:36:35;;;;;;;4.13;2.75;;;;;;;;;;4971990;28;20046;-76
2023/01/07 04:39:03;;;;;;;3.28;2.25;;;;;;;;;;4963647;28;20023;-77
2023/01/07 04:41:29;;;;;;;3.78;2.45;;;;;;;;;;4972740;28;20069;-76
2023/01/07 04:43:54;;;;;;;4.15;2.65;;;;;;;;;;4970772;28;20105;-75
2023/01/07 04:46:23;;;;;;;3.03;1.92;;;;;;;;;;4972248;28;20022;-76
2023/01/07 04:48:48;;;;;;;3.97;2.58;;;;;;;;;;4970894;28;20030;-76
2023/01/07 04:51:13;;;;;;;6.38;2.85;;;;;;;;;;4966318;28;20074;-76
2023/01/07 04:53:39;;;;;;;2.83;2.33;;;;;;;;;;4977501;28;20687;-75
2023/01/07 04:56:05;;;;;;;3.47;2.60;;;;;;;;;;4967905;28;20018;-77
2023/01/07 04:58:31;;;;;;;4.90;2.75;;;;;;;;;;4971746;28;20859;-75
2023/01/07 05:01:02;;;;;;;3.53;2.63;;;;;;;;;;4986911;28;20022;-75
2023/01/07 05:03:28;;;;;;;5.55;2.70;;;;;;;;;;4970859;28;20022;-75
2023/01/07 05:05:53;;;;;;;3.67;2.38;;;;;;;;;;4970235;28;20026;-76
2023/01/07 05:08:19;;;;;;;5.30;2.60;;;;;;;;;;4971526;28;20041;-78
2023/01/07 05:10:44;;;;;;;6.32;2.83;;;;;;;;;;4969718;28;20031;-76
2023/01/07 05:13:21;;;;;;;6.28;2.95;;;;;;;;;;4971143;28;20039;-76
2023/01/07 05:15:49;;;;;;;7.32;3.40;;;;;;;;;;4968305;28;20421;-76
2023/01/07 05:18:16;;;;;;;4.47;2.90;;;;;;;;;;4963183;28;20066;-76
2023/01/07 05:20:42;;;;;;;5.72;2.95;;;;;;;;;;4970160;28;20031;-77
2023/01/07 05:23:07;;;;;;;3.83;2.70;;;;;;;;;;4970998;28;20033;-76
2023/01/07 05:25:36;;;;;;;4.60;3.00;;;;;;;;;;4970890;28;20437;-76
2023/01/07 05:28:01;;;;;;;3.15;2.20;;;;;;;;;;4985861;28;20070;-75
2023/01/07 05:30:27;;;;;;;3.97;2.33;;;;;;;;;;4970252;28;20548;-76
2023/01/07 05:32:52;;;;;;;4.40;2.50;;;;;;;;;;4968470;28;20544;-76
2023/01/07 05:35:17;;;;;;;3.47;2.42;;;;;;;;;;4970750;28;20530;-76
2023/01/07 05:37:44;;;;;;;4.22;2.58;;;;;;;;;;4971147;28;20131;-75
2023/01/07 05:40:10;;;;;;;3.83;2.60;;;;;;;;;;4968379;28;20412;-75
2023/01/07 05:42:35;;;;;;;4.13;2.50;;;;;;;;;;4967019;28;20054;-75
2023/01/07 05:45:01;;;;;;;3.70;2.40;;;;;;;;;;4966968;28;20050;-76
2023/01/07 05:47:26;;;;;;;3.58;2.10;;;;;;;;;;4982902;28;20023;-75
2023/01/07 05:49:54;;;;;;;3.45;2.10;;;;;;;;;;4961214;28;20034;-76
2023/01/07 05:52:24;;;;;;;2.80;2.13;;;;;;;;;;4970350;28;20461;-76
2023/01/07 05:54:51;;;;;;;3.63;2.50;;;;;;;;;;4970502;28;20117;-76
2023/01/07 05:57:17;;;;;;;3.75;2.40;;;;;;;;;;4970718;28;20027;-76
2023/01/07 05:59:42;;;;;;;4.32;2.47;;;;;;;;;;4973816;28;20025;-75
2023/01/07 06:02:11;;;;;;;3.03;1.98;;;;;;;;;;4973435;28;20052;-75
2023/01/07 06:04:36;;;;;;;3.30;2.17;;;;;;;;;;4964043;28;20027;-75
2023/01/07 06:07:01;;;;;;;3.55;2.40;;;;;;;;;;4974838;28;20029;-77
2023/01/07 06:09:28;;;;;;;3.63;2.60;;;;;;;;;;4976149;28;20031;-76
2023/01/07 06:11:54;;;;;;;3.92;2.70;;;;;;;;;;4973855;28;20525;-75
2023/01/07 06:14:19;;;;;;;2.85;2.13;;;;;;;;;;4974252;28;20200;-77
2023/01/07 06:16:45;;;;;;;4.18;2.90;;;;;;;;;;4974522;28;20453;-75
2023/01/07 06:19:10;;;;;;;3.13;2.42;;;;;;;;;;4971843;28;20102;-75
2023/01/07 06:21:35;;;;;;;4.38;2.55;;;;;;;;;;4974776;28;20125;-77
2023/01/07 06:24:01;;;;;;;3.67;2.78;;;;;;;;;;4973976;28;20030;-76
2023/01/07 06:26:29;;;;;;;5.00;3.17;;;;;;;;;;4974615;28;20025;-75
2023/01/07 06:28:59;;;;;;;3.88;2.88;;;;;;;;;;4973743;28;20125;-77
2023/01/07 06:31:24;;;;;;;4.20;2.20;;;;;;;;;;4974828;28;20105;-75
2023/01/07 06:33:50;;;;;;;3.78;2.38;;;;;;;;;;4972735;28;20165;-76
2023/01/07 06:36:15;;;;;;;3.45;2.45;;;;;;;;;;4975048;28;20058;-78
2023/01/07 06:38:40;;;;;;;3.33;2.22;;;;;;;;;;4974542;28;20027;-76
2023/01/07 06:41:08;;;;;;;3.70;2.20;;;;;;;;;;4973461;28;20106;-76
2023/01/07 06:43:34;;;;;;;3.40;2.10;;;;;;;;;;4973993;28;20019;-77
2023/01/07 06:45:59;;;;;;;4.75;1.98;;;;;;;;;;4973901;28;20479;-76
2023/01/07 06:48:24;;;;;;;3.88;2.50;;;;;;;;;;4966147;28;20030;-77
2023/01/07 06:50:52;;;;;;;4.25;2.38;;;;;;;;;;4973771;28;20458;-76
2023/01/07 06:53:18;;;;;;;3.33;2.08;;;;;;;;;;4974833;28;20109;-76
2023/01/07 06:55:48;;;;;;;3.35;2.08;;;;;;;;;;4971805;28;20069;-76
2023/01/07 06:58:16;;;;;;;3.78;2.42;;;;;;;;;;4970217;28;20540;-75
2023/01/07 07:00:41;;;;;;;4.05;2.53;;;;;;;;;;4971464;28;20394;-75
2023/01/07 07:03:09;;;;;;;3.97;2.80;;;;;;;;;;4967995;28;20037;-75
2023/01/07 07:05:35;;;;;;;4.95;2.70;;;;;;;;;;4969906;28;20035;-76
2023/01/07 07:08:00;;;;;;;5.30;3.20;;;;;;;;;;4971820;28;20110;-77
2023/01/07 07:10:26;;;;;;;6.53;3.80;;;;;;;;;;4971736;28;20031;-76
2023/01/07 07:12:51;;;;;;;4.90;3.30;;;;;;;;;;4973020;28;20019;-77
2023/01/07 07:15:17;;;;;;;6.18;3.92;;;;;;;;;;4972585;28;20502;-78
2023/01/07 07:17:43;;;;;;;6.28;3.90;;;;;;;;;;4973542;28;20383;-78
2023/01/07 07:20:09;;;;;;;8.25;4.60;;;;;;;;;;4988170;28;20023;-77
2023/01/07 07:22:34;;;;;;;7.57;4.03;;;;;;;;;;4971278;28;20033;-77
2023/01/07 07:24:59;;;;;;;6.53;3.50;;;;;;;;;;4974218;28;20037;-78
2023/01/07 07:27:27;;;;;;;6.63;4.70;;;;;;;;;;4976336;28;20038;-77
2023/01/07 07:29:52;;;;;;;7.38;5.20;;;;;;;;;;4972261;28;20031;-76
2023/01/07 07:32:21;;;;;;;9.88;5.72;;;;;;;;;;4972617;28;20049;-77
2023/01/07 07:34:49;;;;;;;9.70;5.10;;;;;;;;;;4970942;28;20217;-77
2023/01/07 07:37:14;;;;;;;4.93;3.40;;;;;;;;;;4975443;28;20474;-77
2023/01/07 07:39:40;;;;;;;5.60;3.75;;;;;;;;;;4988703;28;20030;-77
2023/01/07 07:42:05;;;;;;;5.60;3.50;;;;;;;;;;4973872;28;20065;-79
2023/01/07 07:44:30;;;;;;;5.80;3.72;;;;;;;;;;4971801;28;20039;-76
2023/01/07 07:46:56;;;;;;;7.53;5.15;;;;;;;;;;4971982;28;20026;-76
2023/01/07 07:49:23;;;;;;;5.88;3.05;;;;;;;;;;4971469;28;20042;-76
2023/01/07 07:51:49;;;;;;;6.55;3.63;;;;;;;;;;4969238;28;20039;-76
2023/01/07 07:54:14;;;;;;;7.05;3.70;;;;;;;;;;4971130;28;20164;-77
2023/01/07 07:56:40;;;;;;;5.60;3.60;;;;;;;;;;4972982;28;20033;-75
2023/01/07 07:59:10;;;;;;;8.10;4.60;;;;;;;;;;4972811;28;20026;-76
2023/01/07 08:01:35;;;;;;;9.25;4.35;;;;;;;;;;4971153;28;20030;-77
2023/01/07 08:04:01;;;;;;;10.95;5.63;;;;;;;;;;4974986;28;20022;-78
2023/01/07 08:06:26;;;;;;;9.25;4.63;;;;;;;;;;4974399;28;20026;-78
2023/01/07 08:08:51;;;;;;;9.63;5.55;;;;;;;;;;4974241;28;20027;-78
2023/01/07 08:11:17;;;;;;;10.52;5.55;;;;;;;;;;4973827;28;20030;-76
2023/01/07 08:13:43;;;;;;;7.90;4.78;;;;;;;;;;4972599;28;20089;-77
2023/01/07 08:16:09;;;;;;;7.60;5.05;;;;;;;;;;4972051;28;20027;-76
2023/01/07 08:18:34;;;;;;;8.45;4.90;;;;;;;;;;4974289;28;20486;-78
2023/01/07 08:21:00;;;;;;;10.43;5.75;;;;;;;;;;4975661;28;20110;-78
2023/01/07 08:23:26;;;;;;;9.40;5.35;;;;;;;;;;4975298;28;20023;-76
2023/01/07 08:25:57;;;;;;;12.18;5.32;;;;;;;;;;4972406;28;20030;-78
2023/01/07 08:28:22;;;;;;;8.10;5.03;;;;;;;;;;4976446;28;20050;-78
2023/01/07 08:30:48;;;;;;;8.85;4.85;;;;;;;;;;4966875;28;20061;-77
2023/01/07 08:33:15;;;;;;;15.75;8.07;;;;;;;;;;4967880;28;20474;-78
2023/01/07 08:35:43;;;;;;;11.68;5.70;;;;;;;;;;4990554;28;20019;-77
2023/01/07 08:38:08;;;;;;;10.18;6.22;;;;;;;;;;4973887;28;20018;-78
2023/01/07 08:40:35;;;;;;;9.93;6.50;;;;;;;;;;4973908;28;20025;-76
2023/01/07 08:43:02;;;;;;;17.90;8.00;;;;;;;;;;4952969;28;20063;-78
2023/01/07 08:45:31;;;;;;;9.68;5.05;;;;;;;;;;4961364;28;20031;-77
2023/01/07 08:47:56;;;;;;;10.00;5.85;;;;;;;;;;4955718;28;20101;-76
2023/01/07 08:50:27;;;;;;;15.27;7.57;;;;;;;;;;4971217;28;20071;-78
2023/01/07 08:52:52;;;;;;;10.77;6.20;;;;;;;;;;4974815;28;20546;-78
2023/01/07 08:55:18;;;;;;;9.70;6.18;;;;;;;;;;4975608;28;20034;-77
2023/01/07 08:57:43;;;;;;;11.65;5.80;;;;;;;;;;4975305;28;20046;-77
2023/01/07 09:00:10;;;;;;;10.65;6.00;;;;;;;;;;4976823;28;20077;-78
2023/01/07 09:02:35;;;;;;;11.38;5.97;;;;;;;;;;4976473;28;20019;-78
2023/01/07 09:05:04;;;;;;;12.77;7.10;;;;;;;;;;4975586;28;20446;-76
2023/01/07 09:07:30;;;;;;;9.27;6.20;;;;;;;;;;4972060;28;20023;-75
2023/01/07 09:09:58;;;;;;;10.63;6.20;;;;;;;;;;4988740;28;20584;-76
2023/01/07 09:12:29;;;;;;;34.55;11.80;;;;;;;;;;4973607;28;20467;-77
2023/01/07 09:14:54;;;;;;;17.55;7.82;;;;;;;;;;4973997;28;20027;-78
2023/01/07 09:17:20;;;;;;;10.27;6.03;;;;;;;;;;4975170;28;20030;-77
2023/01/07 09:19:45;;;;;;;29.10;11.68;;;;;;;;;;4972063;28;20023;-75
2023/01/07 09:22:10;;;;;;;30.60;13.13;;;;;;;;;;4975329;28;20516;-77
2023/01/07 09:24:36;;;;;;;17.60;7.72;;;;;;;;;;4974357;28;20474;-77
2023/01/07 09:27:03;;;;;;;14.45;7.65;;;;;;;;;;4972188;28;20121;-77
2023/01/07 09:29:29;;;;;;;11.68;6.32;;;;;;;;;;4973322;28;20108;-76
2023/01/07 09:31:57;;;;;;;16.13;9.43;;;;;;;;;;4975188;28;20437;-77
2023/01/07 09:34:25;;;;;;;12.45;6.90;;;;;;;;;;4978623;28;20027;-77
2023/01/07 09:36:50;;;;;;;14.00;7.28;;;;;;;;;;4976949;28;20030;-78
2023/01/07 09:39:16;;;;;;;16.05;8.63;;;;;;;;;;4980552;28;20065;-76
2023/01/07 09:41:55;;;;;;;13.65;7.15;;;;;;;;;;4977545;28;20032;-76
2023/01/07 09:44:27;;;;;;;;;;;;;;;;;;4980773;28;20042;-77
2023/01/07 09:46:54;;;;;;;14.52;7.25;;;;;;;;;;4979520;28;19920;-78
2023/01/07 09:49:24;;;;;;;11.10;6.10;;;;;;;;;;4995001;28;20027;-77
2023/01/07 09:51:55;;;;;;;9.40;5.55;;;;;;;;;;4980084;28;20045;-76
2023/01/07 09:54:36;;;;;;;9.98;6.43;;;;;;;;;;4975211;28;20030;-77
2023/01/07 09:57:07;;;;;;;10.13;5.95;;;;;;;;;;4979899;28;20038;-77
2023/01/07 09:59:33;;;;;;;10.98;6.35;;;;;;;;;;4974496;28;20097;-80
2023/01/07 10:02:17;;;;;;;11.60;6.55;;;;;;;;;;4978167;28;20492;-77
2023/01/07 10:05:00;;;;;;;13.15;7.07;;;;;;;;;;4994398;28;20074;-76
2023/01/07 10:07:33;;;;;;;7.75;4.07;;;;;;;;;;4988158;28;20030;-76
2023/01/07 10:10:10;;;;;;;11.40;7.13;;;;;;;;;;4989932;28;20027;-75
2023/01/07 10:12:42;;;;;;;10.05;6.07;;;;;;;;;;4986191;28;20039;-78
2023/01/07 10:15:35;;;;;;;9.23;5.72;;;;;;;;;;4979924;28;20462;-78
2023/01/07 10:18:11;;;;;;;10.82;6.22;;;;;;;;;;4975395;28;20053;-75
2023/01/07 10:20:42;;;;;;;11.10;6.13;;;;;;;;;;4971725;28;20023;-76
2023/01/07 10:23:34;;;;;;;11.25;5.43;;;;;;;;;;4970048;28;20026;-77
2023/01/07 10:26:03;;;;;;;9.18;5.47;;;;;;;;;;4971679;28;20090;-76
2023/01/07 10:28:39;;;;;;;11.65;6.35;;;;;;;;;;4973113;28;20034;-75
2023/01/07 10:31:19;;;;;;;9.98;5.68;;;;;;;;;;4985157;28;20027;-76
2023/01/07 10:33:49;;;;;;;11.02;6.03;;;;;;;;;;4970349;28;20497;-77
2023/01/07 10:36:29;;;;;;;9.18;5.75;;;;;;;;;;4976064;28;20030;-76
2023/01/07 10:39:07;;;;;;;12.68;6.68;;;;;;;;;;4964570;28;20023;-75
2023/01/07 10:41:42;;;;;;;10.93;6.25;;;;;;;;;;4968095;28;20133;-76
2023/01/07 10:44:42;;;;;;;9.10;5.45;;;;;;;;;;4963037;28;20479;-77
2023/01/07 10:47:37;;;;;;;9.65;5.32;;;;;;;;;;4974329;28;20055;-76
2023/01/07 10:50:08;;;;;;;10.07;6.00;;;;;;;;;;4962530;28;20561;-77
2023/01/07 10:52:55;;;;;;;9.02;5.95;;;;;;;;;;4971870;28;20030;-77
2023/01/07 10:55:36;;;;;;;10.80;5.97;;;;;;;;;;4968976;28;20023;-77
2023/01/07 10:58:02;;;;;;;8.90;5.57;;;;;;;;;;4963147;28;20039;-76
2023/01/07 11:00:28;;;;;;;9.38;5.88;;;;;;;;;;4966352;28;20023;-76
2023/01/07 11:02:59;;;;;;;8.23;5.50;;;;;;;;;;4978115;28;20468;-77
2023/01/07 11:05:40;;;;;;;9.70;5.90;;;;;;;;;;4989729;28;20127;-78
2023/01/07 11:08:14;;;;;;;7.28;5.10;;;;;;;;;;4972666;28;20168;-78
2023/01/07 11:10:40;;;;;;;7.78;5.43;;;;;;;;;;4973575;28;20089;-77
2023/01/07 11:13:15;;;;;;;10.75;6.75;;;;;;;;;;4973247;28;20101;-77
2023/01/07 11:15:49;;;;;;;7.93;5.68;;;;;;;;;;4973029;28;20033;-76
2023/01/07 11:18:22;;;;;;;11.15;6.45;;;;;;;;;;4972634;28;20030;-76
2023/01/07 11:20:51;;;;;;;11.60;6.32;;;;;;;;;;4974119;28;20027;-77
2023/01/07 11:23:30;;;;;;;11.07;7.10;;;;;;;;;;4973254;28;20102;-77
2023/01/07 11:26:28;;;;;;;11.60;5.82;;;;;;;;;;4973014;28;20049;-77
2023/01/07 11:29:13;;;;;;;6.88;5.15;;;;;;;;;;4973813;28;20035;-78
2023/01/07 11:31:59;;;;;;;9.68;5.70;;;;;;;;;;4969947;28;20034;-76
2023/01/07 11:34:26;;;;;;;11.20;6.70;;;;;;;;;;4963221;28;20034;-77
2023/01/07 11:36:51;;;;;;;8.63;5.35;;;;;;;;;;4970583;28;20033;-76
2023/01/07 11:39:23;;;;;;;8.05;5.85;;;;;;;;;;4969172;28;20101;-77
2023/01/07 11:42:38;;;;;;;9.75;5.93;;;;;;;;;;4968507;28;20030;-76
2023/01/07 11:45:20;;;;;;;10.23;5.85;;;;;;;;;;4973238;28;20027;-76
2023/01/07 11:48:00;;;;;;;7.55;5.85;;;;;;;;;;4975848;28;20057;-78
2023/01/07 11:50:41;;;;;;;9.57;5.72;;;;;;;;;;4972785;28;20482;-77
2023/01/07 11:53:12;;;;;;;9.75;6.22;;;;;;;;;;4971733;28;20034;-74
2023/01/07 11:55:38;;;;;;;9.43;6.38;;;;;;;;;;4968149;28;20034;-77
2023/01/07 11:58:05;;;;;;;8.40;5.85;;;;;;;;;;4969398;28;20027;-75
2023/01/07 12:00:31;;;;;;;9.05;6.05;;;;;;;;;;4968351;28;20163;-77
2023/01/07 12:03:02;;;;;;;10.18;6.18;;;;;;;;;;4968468;28;20035;-76
2023/01/07 12:05:27;;;;;;;9.00;5.93;;;;;;;;;;4968146;28;20025;-76
2023/01/07 12:07:56;;;;;;;12.25;5.78;;;;;;;;;;4969322;28;20106;-75
2023/01/07 12:10:26;;;;;;;10.60;6.35;;;;;;;;;;4971861;28;20029;-77
2023/01/07 12:12:54;;;;;;;9.15;6.45;;;;;;;;;;4973434;28;20371;-77
2023/01/07 12:15:31;;;;;;;10.98;6.80;;;;;;;;;;4970293;28;20030;-78
2023/01/07 12:18:11;;;;;;;8.95;5.63;;;;;;;;;;4966752;28;20073;-76
2023/01/07 12:20:39;;;;;;;;;;;;;;;;;;4963025;28;20079;-78
2023/01/07 12:23:31;;;;;;;8.30;6.00;;;;;;;;;;4982781;28;19918;-77
2023/01/07 12:26:15;;;;;;;8.57;6.00;;;;;;;;;;4973255;28;20106;-77
2023/01/07 12:29:16;;;;;;;10.98;7.00;;;;;;;;;;4986300;28;20037;-77
2023/01/07 12:31:46;;;;;;;9.20;6.18;;;;;;;;;;4972359;28;20033;-77
2023/01/07 12:34:17;;;;;;;;;;;;;;;;;;4978558;28;20038;-77
2023/01/07 12:36:47;;;;;;;8.13;5.60;;;;;;;;;;4965972;28;19919;-76
2023/01/07 12:39:35;;;;;;;;;;;;;;;;;;4971356;28;20379;-76
2023/01/07 12:42:14;;;;;;;8.50;5.55;;;;;;;;;;4997989;28;20002;-77
2023/01/07 12:44:46;;;;;;;8.80;6.20;;;;;;;;;;4970067;28;20062;-79
2023/01/07 12:47:17;;;;;;;9.48;6.60;;;;;;;;;;4968489;28;20540;-78
2023/01/07 12:49:56;;;;;;;9.88;6.63;;;;;;;;;;4971354;28;20041;-78
2023/01/07 12:52:30;;;;;;;;;;;;;;;;;;4968712;28;20066;-77
2023/01/07 12:55:05;;;;;;;9.27;6.38;;;;;;;;;;4963111;28;19918;-77
2023/01/07 12:57:34;;;;;;;10.38;6.38;;;;;;;;;;4984007;28;20026;-77
2023/01/07 13:00:18;;;;;;;9.65;6.75;;;;;;;;;;4983581;28;20386;-78
2023/01/07 13:03:04;;;;;;;10.20;6.15;;;;;;;;;;4967772;28;20027;-79
2023/01/07 13:06:12;;;;;;;9.65;6.40;;;;;;;;;;4972159;28;20450;-77
2023/01/07 13:09:09;;;;;;;11.13;6.88;;;;;;;;;;4966621;28;20018;-77
2023/01/07 13:14:36;;;;;;;10.88;6.97;;;;;;;;;;4966775;28;20038;-79
2023/01/07 13:17:24;;;;;;;8.90;6.40;;;;;;;;;;4971042;28;20498;-77
2023/01/07 13:19:50;;;;;;;10.65;7.43;;;;;;;;;;4968835;28;20031;-77
2023/01/07 13:22:24;;;;;;;11.75;7.60;;;;;;;;;;4986567;28;20580;-77
2023/01/07 13:25:10;;;;;;;8.85;6.50;;;;;;;;;;4970768;28;20494;-77
2023/01/07 13:27:56;;;;;;;12.70;8.43;;;;;;;;;;4965046;28;20378;-77
2023/01/07 13:30:35;;;;;;;10.80;7.43;;;;;;;;;;4954956;28;20105;-78
2023/01/07 13:33:33;;;;;;;12.07;7.28;;;;;;;;;;4970562;28;20022;-76
2023/01/07 13:36:16;;;;;;;11.57;7.95;;;;;;;;;;4962161;28;20043;-76
2023/01/07 13:39:03;;;;;;;12.85;8.07;;;;;;;;;;4983813;28;20540;-77
2023/01/07 13:42:03;;;;;;;10.50;6.78;;;;;;;;;;4971642;28;20114;-77
2023/01/07 13:44:37;;;;;;;9.10;6.30;;;;;;;;;;4970546;28;20541;-76
2023/01/07 13:47:08;;;;;;;9.85;6.40;;;;;;;;;;4971451;28;20105;-76
2023/01/07 13:49:34;;;;;;;11.38;6.82;;;;;;;;;;4961974;28;20030;-76
2023/01/07 13:52:19;;;;;;;9.65;6.47;;;;;;;;;;4968077;28;20034;-77
2023/01/07 13:54:48;;;;;;;11.15;6.07;;;;;;;;;;4971211;28;20042;-75
2023/01/07 13:57:22;;;;;;;8.70;6.28;;;;;;;;;;4970845;28;20030;-75
2023/01/07 13:59:49;;;;;;;9.10;5.75;;;;;;;;;;4967163;28;20034;-76
2023/01/07 14:02:19;;;;;;;11.57;5.75;;;;;;;;;;4967538;28;20054;-76
2023/01/07 14:04:49;;;;;;;9.10;5.18;;;;;;;;;;4968276;28;20030;-77
2023/01/07 14:07:15;;;;;;;10.35;5.10;;;;;;;;;;4983493;28;20034;-77
2023/01/07 14:09:41;;;;;;;8.15;5.75;;;;;;;;;;4963920;28;20390;-77
2023/01/07 14:12:15;;;;;;;7.72;5.15;;;;;;;;;;4962289;28;20367;-77
2023/01/07 14:14:44;;;;;;;9.20;5.15;;;;;;;;;;4967680;28;20023;-77
2023/01/07 14:17:52;;;;;;;7.07;4.90;;;;;;;;;;4984042;28;20066;-76
2023/01/07 14:20:27;;;;;;;8.20;4.95;;;;;;;;;;4972349;28;20038;-78
2023/01/07 14:23:38;;;;;;;7.88;5.28;;;;;;;;;;4973381;28;20490;-78
2023/01/07 14:26:21;;;;;;;8.68;5.32;;;;;;;;;;4972048;28;20094;-77
2023/01/07 14:29:11;;;;;;;8.90;5.20;;;;;;;;;;4973085;28;20035;-76
2023/01/07 14:31:36;;;;;;;10.80;5.93;;;;;;;;;;4975499;28;20038;-77
2023/01/07 14:34:22;;;;;;;10.95;5.88;;;;;;;;;;4973281;28;20022;-76
2023/01/07 14:37:08;;;;;;;7.72;4.95;;;;;;;;;;4975195;28;20078;-77
2023/01/07 14:39:36;;;;;;;12.02;5.30;;;;;;;;;;4969815;28;20339;-77
2023/01/07 14:42:39;;;;;;;11.40;5.90;;;;;;;;;;4976220;28;20116;-78
2023/01/07 14:45:40;;;;;;;8.45;5.45;;;;;;;;;;4990084;28;20052;-78
2023/01/07 14:48:09;;;;;;;7.97;5.10;;;;;;;;;;4968981;28;20043;-76
2023/01/07 14:50:39;;;;;;;11.77;6.50;;;;;;;;;;4972973;28;20069;-76
2023/01/07 14:53:42;;;;;;;13.88;6.95;;;;;;;;;;4969127;28;20022;-76
2023/01/07 14:56:31;;;;;;;16.13;7.03;;;;;;;;;;4970214;28;20027;-76
2023/01/07 14:59:21;;;;;;;10.15;5.53;;;;;;;;;;4970060;28;20512;-76
2023/01/07 15:02:26;;;;;;;17.05;6.75;;;;;;;;;;4972982;28;20035;-76
2023/01/07 15:05:15;;;;;;;13.10;6.45;;;;;;;;;;4968855;28;20027;-75
2023/01/07 15:07:44;;;;;;;22.55;9.32;;;;;;;;;;4973164;28;20026;-77
2023/01/07 15:16:01;;;;;;;11.02;6.47;;;;;;;;;;4972149;28;20046;-75
2023/01/07 15:18:48;;;;;;;17.02;7.63;;;;;;;;;;4972952;28;20022;-76